Time;durP1;ratioP1;P1;durP2;ratioP2;P2;SDS_P1;SDS_P2;PMS_P1;PMS_P2;Temp;Humidity;BMP_temperature;BMP_pressure;BME280_temperature;BME280_humidity;BME280_pressure;Samples;Min_cycle;Max_cycle;Signal;HPM_P1;HPM_P2
2020/12/02 08:02:31;;;;;;;;;;;;;;;;;;5058585;28;20916;-75
2020/12/02 08:04:58;;;;;;;13.15;4.20;;;;;;;;;;5058257;28;19908;-75
2020/12/02 08:07:37;;;;;;;15.13;4.97;;;;;;;;;;5049417;28;20037;-76
2020/12/02 08:10:03;;;;;;;16.63;6.13;;;;;;;;;;5048552;28;20450;-75
2020/12/02 08:12:30;;;;;;;15.73;5.22;;;;;;;;;;5043045;28;20068;-77
2020/12/02 08:15:06;;;;;;;11.60;4.85;;;;;;;;;;5048064;28;20017;-76
2020/12/02 08:17:33;;;;;;;14.93;4.80;;;;;;;;;;5049519;28;20394;-75
2020/12/02 08:19:59;;;;;;;14.85;4.82;;;;;;;;;;5057121;28;20036;-76
2020/12/02 08:22:27;;;;;;;14.13;6.28;;;;;;;;;;5059203;28;20487;-75
2020/12/02 08:25:10;;;;;;;20.02;5.32;;;;;;;;;;5069255;28;20029;-76
2020/12/02 08:27:35;;;;;;;21.13;5.38;;;;;;;;;;5065608;28;20041;-76
2020/12/02 08:30:06;;;;;;;15.65;4.82;;;;;;;;;;5041718;28;20029;-77
2020/12/02 08:32:37;;;;;;;10.10;4.20;;;;;;;;;;5055234;28;20033;-76
2020/12/02 08:35:29;;;;;;;15.88;4.57;;;;;;;;;;5061533;28;20029;-76
2020/12/02 08:37:56;;;;;;;15.57;4.85;;;;;;;;;;5044306;28;20045;-76
2020/12/02 08:40:27;;;;;;;13.65;4.68;;;;;;;;;;5045994;28;20037;-76
2020/12/02 08:42:52;;;;;;;15.73;4.82;;;;;;;;;;5046603;28;20428;-76
2020/12/02 08:45:19;;;;;;;10.20;4.68;;;;;;;;;;5046531;28;20066;-75
2020/12/02 08:47:54;;;;;;;8.88;4.30;;;;;;;;;;5046345;28;20033;-78
2020/12/02 08:50:22;;;;;;;11.15;4.50;;;;;;;;;;5045817;28;20041;-75
2020/12/02 08:52:55;;;;;;;11.70;4.28;;;;;;;;;;5046463;28;20037;-75
2020/12/02 08:55:20;;;;;;;14.88;4.70;;;;;;;;;;5046295;28;20413;-74
2020/12/02 08:57:46;;;;;;;15.25;4.57;;;;;;;;;;5046392;28;20021;-75
2020/12/02 09:00:18;;;;;;;11.13;4.45;;;;;;;;;;5046019;28;20486;-75
2020/12/02 09:02:43;;;;;;;15.50;4.80;;;;;;;;;;5046234;28;20033;-75
2020/12/02 09:05:09;;;;;;;13.13;4.32;;;;;;;;;;5046614;28;20013;-75
2020/12/02 09:07:34;;;;;;;19.52;5.55;;;;;;;;;;5046768;28;20037;-75
2020/12/02 09:10:00;;;;;;;13.05;4.70;;;;;;;;;;5048680;28;20057;-75
2020/12/02 09:12:25;;;;;;;13.52;4.40;;;;;;;;;;5060553;28;20488;-75
2020/12/02 09:14:51;;;;;;;13.32;4.57;;;;;;;;;;5053980;28;20029;-75
2020/12/02 09:17:16;;;;;;;12.60;4.32;;;;;;;;;;5054225;28;20041;-76
2020/12/02 09:19:42;;;;;;;12.10;4.40;;;;;;;;;;5054735;28;20096;-75
2020/12/02 09:22:07;;;;;;;16.42;4.55;;;;;;;;;;5054416;28;20076;-75
2020/12/02 09:24:32;;;;;;;17.23;4.95;;;;;;;;;;5037494;28;20041;-76
2020/12/02 09:26:58;;;;;;;9.25;4.13;;;;;;;;;;5034498;28;20021;-75
2020/12/02 09:29:23;;;;;;;10.93;4.20;;;;;;;;;;5034616;28;20022;-76
2020/12/02 09:31:48;;;;;;;20.55;5.40;;;;;;;;;;5035178;28;20458;-74
2020/12/02 09:34:13;;;;;;;15.52;4.90;;;;;;;;;;5034650;28;20068;-75
2020/12/02 09:36:39;;;;;;;14.15;5.43;;;;;;;;;;5034445;28;20036;-75
2020/12/02 09:39:06;;;;;;;13.77;4.45;;;;;;;;;;5035133;28;20040;-75
2020/12/02 09:41:50;;;;;;;12.98;4.07;;;;;;;;;;5034465;28;20029;-75
2020/12/02 09:44:21;;;;;;;14.93;4.25;;;;;;;;;;5034599;28;20033;-75
2020/12/02 09:46:49;;;;;;;19.88;4.88;;;;;;;;;;5034435;28;20116;-75
2020/12/02 09:49:15;;;;;;;11.75;4.70;;;;;;;;;;5032987;28;20097;-75
2020/12/02 09:51:41;;;;;;;18.17;4.55;;;;;;;;;;5034616;28;20532;-75
2020/12/02 09:54:10;;;;;;;16.40;4.55;;;;;;;;;;5034447;28;20033;-75
2020/12/02 09:56:45;;;;;;;13.95;4.65;;;;;;;;;;5034103;28;20021;-76
2020/12/02 09:59:11;;;;;;;13.20;5.97;;;;;;;;;;5033852;28;20036;-74
2020/12/02 10:01:47;;;;;;;9.30;4.60;;;;;;;;;;5026117;28;20486;-79
2020/12/02 10:04:26;;;;;;;16.38;5.18;;;;;;;;;;5031700;28;20033;-75
2020/12/02 10:06:56;;;;;;;23.15;6.50;;;;;;;;;;5031484;28;20420;-75
2020/12/02 10:09:40;;;;;;;16.88;8.57;;;;;;;;;;5031631;28;20439;-75
2020/12/02 10:12:20;;;;;;;21.55;8.55;;;;;;;;;;5050872;28;20090;-75
2020/12/02 10:14:50;;;;;;;21.92;8.73;;;;;;;;;;5033611;28;20469;-78
2020/12/02 10:17:16;;;;;;;21.63;10.07;;;;;;;;;;5031595;28;20021;-75
2020/12/02 10:19:44;;;;;;;22.45;9.63;;;;;;;;;;5031547;28;20087;-75
2020/12/02 10:22:19;;;;;;;27.35;8.13;;;;;;;;;;5031332;28;20033;-76
2020/12/02 10:24:53;;;;;;;13.10;5.23;;;;;;;;;;5030401;28;20029;-75
2020/12/02 10:27:21;;;;;;;14.80;5.30;;;;;;;;;;5030945;28;20274;-75
2020/12/02 10:30:08;;;;;;;11.77;4.72;;;;;;;;;;5031715;28;20742;-75
2020/12/02 10:32:52;;;;;;;20.17;4.68;;;;;;;;;;5031598;28;20048;-75
2020/12/02 10:35:18;;;;;;;15.57;4.97;;;;;;;;;;5030939;28;20067;-76
2020/12/02 10:37:44;;;;;;;11.70;4.10;;;;;;;;;;5030760;28;20099;-75
2020/12/02 10:40:10;;;;;;;14.60;4.60;;;;;;;;;;5031281;28;20025;-76
2020/12/02 10:43:01;;;;;;;17.55;4.75;;;;;;;;;;5032087;28;20047;-75
2020/12/02 10:45:27;;;;;;;10.90;3.92;;;;;;;;;;5029426;28;20041;-76
2020/12/02 10:48:16;;;;;;;8.30;3.75;;;;;;;;;;5026188;28;20711;-77
2020/12/02 10:50:43;;;;;;;17.70;3.70;;;;;;;;;;5026942;28;20148;-75
2020/12/02 10:53:13;;;;;;;12.00;4.20;;;;;;;;;;5028186;28;20017;-76
2020/12/02 10:55:39;;;;;;;12.57;4.25;;;;;;;;;;5022577;28;20033;-76
2020/12/02 10:58:04;;;;;;;15.98;4.25;;;;;;;;;;5020081;28;20041;-76
2020/12/02 11:00:31;;;;;;;10.85;3.97;;;;;;;;;;5030037;28;20124;-75
2020/12/02 11:03:06;;;;;;;11.90;4.75;;;;;;;;;;5031370;28;20037;-74
2020/12/02 11:05:31;;;;;;;17.08;5.15;;;;;;;;;;5030336;28;20029;-74
2020/12/02 11:08:00;;;;;;;11.52;4.43;;;;;;;;;;5036051;28;20431;-75
2020/12/02 11:10:44;;;;;;;16.77;6.32;;;;;;;;;;5048973;28;20033;-77
2020/12/02 11:13:20;;;;;;;18.52;7.55;;;;;;;;;;5049928;28;20037;-75
2020/12/02 11:15:53;;;;;;;29.85;10.02;;;;;;;;;;5049789;28;20044;-75
2020/12/02 11:18:27;;;;;;;21.58;8.65;;;;;;;;;;5039306;28;20029;-73
2020/12/02 11:20:58;;;;;;;22.73;9.07;;;;;;;;;;5030516;28;20041;-75
2020/12/02 11:23:33;;;;;;;26.63;9.93;;;;;;;;;;5028917;28;20056;-76
2020/12/02 11:26:14;;;;;;;24.73;11.13;;;;;;;;;;5030214;28;20500;-75
2020/12/02 11:28:44;;;;;;;22.38;10.25;;;;;;;;;;5030167;28;20117;-74
2020/12/02 11:31:18;;;;;;;26.73;11.00;;;;;;;;;;5029721;28;20498;-75
2020/12/02 11:33:56;;;;;;;30.33;12.07;;;;;;;;;;5029964;28;20418;-75
2020/12/02 11:36:31;;;;;;;27.13;13.32;;;;;;;;;;5029594;28;20140;-75
2020/12/02 11:39:02;;;;;;;38.85;15.73;;;;;;;;;;5029755;28;20398;-76
2020/12/02 11:41:39;;;;;;;35.83;15.23;;;;;;;;;;5029624;28;20026;-76
2020/12/02 11:44:31;;;;;;;32.20;14.05;;;;;;;;;;5028907;28;20547;-76
2020/12/02 11:47:04;;;;;;;34.10;12.30;;;;;;;;;;5020321;28;20048;-75
2020/12/02 11:49:41;;;;;;;28.10;12.00;;;;;;;;;;5028656;28;20033;-76
2020/12/02 11:52:12;;;;;;;21.85;9.73;;;;;;;;;;5029987;28;20045;-74
2020/12/02 11:54:39;;;;;;;22.40;8.05;;;;;;;;;;5030713;28;20373;-75
2020/12/02 11:57:05;;;;;;;20.98;8.80;;;;;;;;;;5030143;28;20052;-76
2020/12/02 11:59:32;;;;;;;18.17;7.95;;;;;;;;;;5029284;28;20029;-75
2020/12/02 12:02:04;;;;;;;19.08;8.63;;;;;;;;;;5029934;28;20053;-75
2020/12/02 12:04:32;;;;;;;16.50;7.72;;;;;;;;;;5029739;28;20038;-75
2020/12/02 12:06:59;;;;;;;24.48;7.47;;;;;;;;;;5030001;28;20045;-76
2020/12/02 12:09:32;;;;;;;23.05;8.90;;;;;;;;;;5029443;28;20091;-75
2020/12/02 12:12:01;;;;;;;18.10;8.63;;;;;;;;;;5047797;28;20041;-75
2020/12/02 12:14:45;;;;;;;17.00;7.90;;;;;;;;;;5049733;28;20033;-75
2020/12/02 12:17:19;;;;;;;18.70;6.88;;;;;;;;;;5049977;28;20037;-75
2020/12/02 12:19:44;;;;;;;18.58;7.75;;;;;;;;;;5049485;28;20381;-75
2020/12/02 12:22:13;;;;;;;32.88;13.38;;;;;;;;;;5049157;28;20021;-75
2020/12/02 12:24:38;;;;;;;20.58;7.90;;;;;;;;;;5047434;28;20539;-75
2020/12/02 12:27:03;;;;;;;21.63;7.88;;;;;;;;;;5029199;28;20037;-75
2020/12/02 12:29:29;;;;;;;15.75;8.85;;;;;;;;;;5028339;28;20526;-75
2020/12/02 12:32:06;;;;;;;20.35;7.80;;;;;;;;;;5028400;28;20087;-75
2020/12/02 12:34:31;;;;;;;26.70;7.88;;;;;;;;;;5028071;28;20413;-74
2020/12/02 12:37:00;;;;;;;19.98;8.05;;;;;;;;;;5028154;28;20098;-75
2020/12/02 12:39:28;;;;;;;19.85;8.45;;;;;;;;;;5029210;28;20025;-75
2020/12/02 12:41:53;;;;;;;18.83;8.05;;;;;;;;;;5028431;28;20101;-75
2020/12/02 12:44:35;;;;;;;26.60;8.98;;;;;;;;;;5030024;28;20117;-75
2020/12/02 12:47:06;;;;;;;20.25;7.03;;;;;;;;;;5029178;28;20052;-74
2020/12/02 12:49:32;;;;;;;20.80;8.18;;;;;;;;;;5032393;28;20456;-76
2020/12/02 12:51:58;;;;;;;20.50;9.43;;;;;;;;;;5030762;28;20037;-76
2020/12/02 12:54:23;;;;;;;22.90;10.27;;;;;;;;;;5032494;28;20025;-75
2020/12/02 12:56:51;;;;;;;26.55;10.20;;;;;;;;;;5032561;28;20501;-75
2020/12/02 12:59:17;;;;;;;20.90;10.20;;;;;;;;;;5032396;28;20028;-76
2020/12/02 13:01:45;;;;;;;30.70;12.85;;;;;;;;;;5018760;28;20041;-74
2020/12/02 13:04:12;;;;;;;28.05;13.15;;;;;;;;;;5030603;28;20443;-75
2020/12/02 13:06:55;;;;;;;29.25;12.15;;;;;;;;;;5031483;28;20017;-76
2020/12/02 13:09:20;;;;;;;30.52;12.48;;;;;;;;;;5031516;28;20064;-75
2020/12/02 13:11:49;;;;;;;40.45;13.27;;;;;;;;;;5048805;28;20064;-74
2020/12/02 13:14:50;;;;;;;24.38;9.63;;;;;;;;;;5052361;28;20366;-75
2020/12/02 13:17:39;;;;;;;17.25;7.95;;;;;;;;;;4990574;28;20034;-74
2020/12/02 13:20:09;;;;;;;30.08;9.85;;;;;;;;;;5011423;28;20136;-74
2020/12/02 13:22:48;;;;;;;23.65;8.40;;;;;;;;;;5012620;28;20044;-74
2020/12/02 13:25:16;;;;;;;23.45;9.45;;;;;;;;;;5011411;28;20137;-74
2020/12/02 13:28:03;;;;;;;23.50;8.77;;;;;;;;;;5012472;28;20041;-75
2020/12/02 13:30:32;;;;;;;18.23;8.15;;;;;;;;;;5013158;28;20100;-74
2020/12/02 13:33:00;;;;;;;23.70;9.00;;;;;;;;;;5012857;28;20037;-75
2020/12/02 13:35:25;;;;;;;23.90;9.82;;;;;;;;;;5012628;28;20046;-74
2020/12/02 13:37:58;;;;;;;24.02;11.27;;;;;;;;;;5023006;28;20064;-75
2020/12/02 13:40:23;;;;;;;29.60;12.55;;;;;;;;;;5029126;28;20060;-75
2020/12/02 13:42:49;;;;;;;25.13;12.00;;;;;;;;;;5030800;28;20111;-74
2020/12/02 13:45:20;;;;;;;33.90;11.75;;;;;;;;;;5028713;28;20060;-75
2020/12/02 13:47:46;;;;;;;26.27;9.75;;;;;;;;;;5030223;28;20040;-74
2020/12/02 13:50:14;;;;;;;23.90;10.02;;;;;;;;;;5028631;28;20068;-75
2020/12/02 13:52:53;;;;;;;18.45;9.65;;;;;;;;;;5030347;28;20044;-77
2020/12/02 13:55:24;;;;;;;26.75;9.60;;;;;;;;;;5030330;28;20030;-74
2020/12/02 13:58:05;;;;;;;35.47;10.52;;;;;;;;;;5028632;28;20051;-74
2020/12/02 14:00:43;;;;;;;19.88;9.23;;;;;;;;;;5028011;28;20443;-74
2020/12/02 14:03:26;;;;;;;17.92;7.65;;;;;;;;;;5030054;28;20033;-74
2020/12/02 14:05:54;;;;;;;18.73;8.07;;;;;;;;;;5030529;28;20042;-75
2020/12/02 14:08:20;;;;;;;20.63;8.25;;;;;;;;;;5030437;28;20040;-75
2020/12/02 14:10:46;;;;;;;26.35;9.25;;;;;;;;;;5034631;28;20038;-75
2020/12/02 14:13:11;;;;;;;13.65;5.75;;;;;;;;;;5030006;28;20029;-75
2020/12/02 14:15:38;;;;;;;18.00;7.40;;;;;;;;;;5029437;28;20148;-75
2020/12/02 14:18:04;;;;;;;13.73;7.03;;;;;;;;;;5030534;28;20022;-76
2020/12/02 14:20:29;;;;;;;10.30;5.70;;;;;;;;;;5030758;28;20040;-76
2020/12/02 14:22:55;;;;;;;16.92;7.32;;;;;;;;;;5029585;28;20029;-74
2020/12/02 14:25:21;;;;;;;14.52;5.95;;;;;;;;;;5030289;28;20045;-79
2020/12/02 14:27:49;;;;;;;19.55;6.78;;;;;;;;;;5031669;28;20111;-75
2020/12/02 14:30:25;;;;;;;9.75;3.63;;;;;;;;;;5031198;28;20124;-76
2020/12/02 14:32:52;;;;;;;7.50;3.42;;;;;;;;;;5031544;28;20042;-74
2020/12/02 14:35:19;;;;;;;9.52;3.20;;;;;;;;;;5031227;28;20033;-74
2020/12/02 14:37:44;;;;;;;6.03;3.33;;;;;;;;;;5028961;28;20051;-76
2020/12/02 14:40:10;;;;;;;10.65;3.60;;;;;;;;;;5030804;28;20521;-74
2020/12/02 14:42:35;;;;;;;5.85;2.33;;;;;;;;;;5030626;28;20037;-76
2020/12/02 14:45:00;;;;;;;6.55;2.25;;;;;;;;;;5030907;28;20429;-74
2020/12/02 14:47:26;;;;;;;10.57;2.05;;;;;;;;;;5031189;28;20038;-79
2020/12/02 14:49:51;;;;;;;6.57;1.70;;;;;;;;;;5031281;28;20611;-74
2020/12/02 14:52:17;;;;;;;5.05;1.83;;;;;;;;;;5030114;28;20039;-75
2020/12/02 14:54:42;;;;;;;6.97;1.90;;;;;;;;;;5030850;28;20057;-75
2020/12/02 14:57:10;;;;;;;5.25;1.60;;;;;;;;;;5029864;28;20037;-76
2020/12/02 14:59:45;;;;;;;8.77;2.42;;;;;;;;;;5030619;28;20045;-75
2020/12/02 15:02:11;;;;;;;7.15;2.00;;;;;;;;;;5029905;28;20049;-74
2020/12/02 15:04:38;;;;;;;3.25;1.17;;;;;;;;;;5030573;28;20036;-74
2020/12/02 15:07:18;;;;;;;7.72;1.52;;;;;;;;;;5030617;28;20028;-74
2020/12/02 15:09:49;;;;;;;3.67;1.33;;;;;;;;;;5030829;28;20110;-74
2020/12/02 15:12:15;;;;;;;8.98;1.52;;;;;;;;;;5049777;28;20073;-75
2020/12/02 15:14:40;;;;;;;11.00;1.88;;;;;;;;;;5050350;28;20056;-74
2020/12/02 15:17:19;;;;;;;8.23;1.52;;;;;;;;;;5049994;28;20429;-74
2020/12/02 15:19:46;;;;;;;8.32;1.45;;;;;;;;;;5049110;28;20438;-74
2020/12/02 15:22:12;;;;;;;9.23;1.40;;;;;;;;;;5049591;28;20028;-74
2020/12/02 15:24:37;;;;;;;12.68;1.58;;;;;;;;;;5049916;28;20103;-74
2020/12/02 15:27:09;;;;;;;6.20;2.05;;;;;;;;;;5050083;28;20099;-74
2020/12/02 15:29:35;;;;;;;13.63;2.28;;;;;;;;;;5050088;28;20480;-75
2020/12/02 15:32:03;;;;;;;7.78;1.65;;;;;;;;;;5050074;28;20080;-75
2020/12/02 15:34:28;;;;;;;7.43;1.40;;;;;;;;;;5049778;28;20021;-74
2020/12/02 15:37:00;;;;;;;16.77;1.67;;;;;;;;;;5049927;28;20033;-75
2020/12/02 15:39:34;;;;;;;12.50;1.77;;;;;;;;;;5050275;28;20037;-74
2020/12/02 15:42:08;;;;;;;12.63;1.95;;;;;;;;;;5049307;28;20473;-75
2020/12/02 15:44:43;;;;;;;19.70;8.00;;;;;;;;;;5049978;28;20033;-76
2020/12/02 15:47:17;;;;;;;13.90;2.23;;;;;;;;;;5010834;28;20041;-74
2020/12/02 15:49:45;;;;;;;15.32;2.08;;;;;;;;;;5011509;28;20042;-75
2020/12/02 15:52:10;;;;;;;12.20;1.58;;;;;;;;;;5030235;28;20048;-75
2020/12/02 15:54:44;;;;;;;18.75;1.73;;;;;;;;;;5029775;28;20033;-75
2020/12/02 15:57:12;;;;;;;15.07;1.98;;;;;;;;;;5030182;28;20021;-74
2020/12/02 15:59:47;;;;;;;7.78;1.45;;;;;;;;;;5030472;28;20033;-74
2020/12/02 16:02:12;;;;;;;19.65;5.15;;;;;;;;;;5029995;28;20085;-75
2020/12/02 16:04:43;;;;;;;22.95;4.07;;;;;;;;;;5029832;28;20410;-74
2020/12/02 16:07:21;;;;;;;15.45;2.72;;;;;;;;;;5029642;28;20038;-74
2020/12/02 16:09:47;;;;;;;23.17;8.68;;;;;;;;;;5029950;28;20034;-75
2020/12/02 16:12:14;;;;;;;12.73;2.30;;;;;;;;;;5049771;28;20037;-74
2020/12/02 16:14:40;;;;;;;13.65;2.03;;;;;;;;;;5049547;28;20013;-74
2020/12/02 16:17:09;;;;;;;22.95;3.33;;;;;;;;;;5049333;28;20108;-76
2020/12/02 16:19:34;;;;;;;16.42;1.70;;;;;;;;;;5049928;28;20037;-75
2020/12/02 16:22:02;;;;;;;20.90;2.92;;;;;;;;;;5049694;28;20022;-74
2020/12/02 16:24:28;;;;;;;21.42;1.90;;;;;;;;;;5053573;28;20032;-74
2020/12/02 16:26:54;;;;;;;13.32;3.60;;;;;;;;;;5053706;28;20032;-74
2020/12/02 16:29:20;;;;;;;17.88;4.63;;;;;;;;;;5054118;28;20020;-76
2020/12/02 16:31:47;;;;;;;17.35;2.30;;;;;;;;;;5053151;28;20045;-74
2020/12/02 16:34:13;;;;;;;15.50;3.40;;;;;;;;;;5053235;28;20025;-75
2020/12/02 16:36:38;;;;;;;12.02;2.60;;;;;;;;;;5053209;28;20031;-75
2020/12/02 16:39:05;;;;;;;24.98;2.90;;;;;;;;;;5052324;28;20089;-75
2020/12/02 16:41:49;;;;;;;16.00;3.58;;;;;;;;;;5031923;28;20104;-74
2020/12/02 16:44:32;;;;;;;19.75;2.47;;;;;;;;;;5036705;28;20170;-75
2020/12/02 16:47:00;;;;;;;18.38;3.92;;;;;;;;;;5037912;28;20017;-75
2020/12/02 16:49:44;;;;;;;19.38;4.18;;;;;;;;;;5046608;28;20023;-77
2020/12/02 16:52:12;;;;;;;21.40;3.58;;;;;;;;;;5048195;28;20113;-75
2020/12/02 16:54:56;;;;;;;11.68;2.53;;;;;;;;;;5036464;28;20475;-75
2020/12/02 16:57:23;;;;;;;24.55;1.77;;;;;;;;;;5032531;28;20032;-75
2020/12/02 16:59:50;;;;;;;11.48;1.88;;;;;;;;;;5032353;28;20051;-74
2020/12/02 17:02:33;;;;;;;23.73;2.55;;;;;;;;;;5032692;28;20045;-75
2020/12/02 17:05:00;;;;;;;12.55;3.03;;;;;;;;;;5032395;28;20079;-75
2020/12/02 17:07:25;;;;;;;20.55;3.17;;;;;;;;;;5032986;28;20064;-76
2020/12/02 17:09:51;;;;;;;23.50;4.70;;;;;;;;;;5033670;28;20397;-74
2020/12/02 17:12:35;;;;;;;18.27;3.17;;;;;;;;;;5052412;28;20037;-75
2020/12/02 17:15:15;;;;;;;22.35;2.42;;;;;;;;;;5037072;28;20488;-74
2020/12/02 17:17:59;;;;;;;20.58;2.85;;;;;;;;;;5031983;28;20037;-74
2020/12/02 17:20:32;;;;;;;14.60;2.70;;;;;;;;;;5032321;28;20374;-75
2020/12/02 17:23:05;;;;;;;29.75;5.30;;;;;;;;;;5031348;28;20099;-75
2020/12/02 17:25:36;;;;;;;30.20;9.35;;;;;;;;;;5032763;28;20025;-74
2020/12/02 17:28:02;;;;;;;28.83;9.07;;;;;;;;;;5032881;28;20030;-74
2020/12/02 17:30:33;;;;;;;56.13;18.83;;;;;;;;;;5031939;28;20041;-74
2020/12/02 17:33:04;;;;;;;26.85;8.35;;;;;;;;;;5030207;28;20013;-75
2020/12/02 17:35:30;;;;;;;30.58;11.77;;;;;;;;;;5031056;28;20152;-75
2020/12/02 17:38:14;;;;;;;37.33;13.25;;;;;;;;;;5030810;28;20124;-74
2020/12/02 17:40:45;;;;;;;33.75;10.05;;;;;;;;;;5032275;28;20034;-75
2020/12/02 17:43:13;;;;;;;98.47;39.17;;;;;;;;;;5034951;28;20036;-78
2020/12/02 17:45:47;;;;;;;128.23;56.25;;;;;;;;;;5043250;28;20031;-75
2020/12/02 17:48:19;;;;;;;90.75;38.00;;;;;;;;;;5051758;28;20025;-76
2020/12/02 17:50:57;;;;;;;63.63;23.95;;;;;;;;;;5051414;28;20067;-74
2020/12/02 17:53:22;;;;;;;75.55;26.92;;;;;;;;;;5045553;28;20033;-74
2020/12/02 17:55:53;;;;;;;65.20;24.95;;;;;;;;;;5039003;28;20033;-75
2020/12/02 17:58:33;;;;;;;74.40;30.73;;;;;;;;;;5042546;28;20121;-75
2020/12/02 18:01:04;;;;;;;101.55;39.53;;;;;;;;;;5048057;28;21235;-74
2020/12/02 18:03:30;;;;;;;75.35;27.88;;;;;;;;;;5050748;28;20421;-74
2020/12/02 18:06:13;;;;;;;62.22;22.45;;;;;;;;;;5044405;28;20020;-75
2020/12/02 18:08:53;;;;;;;56.85;16.42;;;;;;;;;;5012023;28;20034;-75
2020/12/02 18:11:37;;;;;;;60.00;13.30;;;;;;;;;;5037529;28;20135;-75
2020/12/02 18:14:19;;;;;;;37.53;12.68;;;;;;;;;;5034539;28;20429;-75
2020/12/02 18:16:49;;;;;;;29.75;10.23;;;;;;;;;;5030602;28;20448;-74
2020/12/02 18:19:25;;;;;;;29.88;10.30;;;;;;;;;;5032187;28;20073;-74
2020/12/02 18:21:57;;;;;;;37.40;9.02;;;;;;;;;;5031468;28;20053;-75
2020/12/02 18:24:22;;;;;;;29.17;9.63;;;;;;;;;;5038031;28;20040;-75
2020/12/02 18:26:53;;;;;;;31.80;10.20;;;;;;;;;;5037560;28;20423;-74
2020/12/02 18:29:36;;;;;;;39.72;9.15;;;;;;;;;;5036743;28;20014;-75
2020/12/02 18:32:06;;;;;;;42.13;8.63;;;;;;;;;;5032115;28;20041;-75
2020/12/02 18:34:47;;;;;;;37.45;8.45;;;;;;;;;;5037658;28;20730;-75
2020/12/02 18:37:15;;;;;;;34.55;8.52;;;;;;;;;;5031959;28;20087;-75
2020/12/02 18:39:49;;;;;;;36.13;8.25;;;;;;;;;;5041090;28;20065;-74
2020/12/02 18:42:21;;;;;;;34.58;8.60;;;;;;;;;;5039307;28;20115;-75
2020/12/02 18:44:47;;;;;;;30.15;7.07;;;;;;;;;;5043512;28;20030;-75
2020/12/02 18:47:16;;;;;;;41.15;7.65;;;;;;;;;;5040424;28;20368;-74
2020/12/02 18:49:53;;;;;;;36.70;7.10;;;;;;;;;;5039133;28;20465;-74
2020/12/02 18:52:19;;;;;;;35.30;7.13;;;;;;;;;;5037346;28;20482;-75
2020/12/02 18:54:44;;;;;;;28.92;7.47;;;;;;;;;;5040839;28;20091;-74
2020/12/02 18:57:28;;;;;;;26.70;6.72;;;;;;;;;;5024958;28;20112;-78
2020/12/02 18:59:54;;;;;;;39.40;11.60;;;;;;;;;;5009570;28;20037;-74
2020/12/02 19:02:20;;;;;;;38.10;10.10;;;;;;;;;;5023884;28;20064;-75
2020/12/02 19:04:51;;;;;;;33.92;8.82;;;;;;;;;;5028995;28;20428;-75
2020/12/02 19:07:21;;;;;;;35.10;8.18;;;;;;;;;;5039167;28;20029;-75
2020/12/02 19:09:50;;;;;;;34.60;8.93;;;;;;;;;;5045510;28;20552;-74
2020/12/02 19:12:15;;;;;;;28.90;8.23;;;;;;;;;;5039030;28;20044;-75
2020/12/02 19:14:43;;;;;;;25.83;7.68;;;;;;;;;;5027154;28;20373;-75
2020/12/02 19:17:20;;;;;;;52.55;7.68;;;;;;;;;;5037032;28;20501;-75
2020/12/02 19:19:48;;;;;;;33.17;7.47;;;;;;;;;;5035837;28;20079;-74
2020/12/02 19:22:20;;;;;;;37.80;7.80;;;;;;;;;;5039660;28;20037;-75
2020/12/02 19:24:58;;;;;;;32.90;6.80;;;;;;;;;;5034587;28;20033;-74
2020/12/02 19:27:42;;;;;;;30.25;6.18;;;;;;;;;;5037272;28;20029;-74
2020/12/02 19:30:12;;;;;;;23.25;6.60;;;;;;;;;;5029214;28;20029;-75
2020/12/02 19:32:44;;;;;;;19.40;6.20;;;;;;;;;;5015836;28;20536;-75
2020/12/02 19:35:18;;;;;;;28.80;7.05;;;;;;;;;;5039946;28;20123;-76
2020/12/02 19:37:52;;;;;;;29.63;7.88;;;;;;;;;;5040642;28;20025;-78
2020/12/02 19:40:23;;;;;;;25.45;7.15;;;;;;;;;;5039690;28;20033;-75
2020/12/02 19:42:58;;;;;;;30.85;7.30;;;;;;;;;;5038171;28;20434;-74
2020/12/02 19:45:23;;;;;;;36.35;9.00;;;;;;;;;;5043384;28;20038;-77
2020/12/02 19:48:07;;;;;;;43.63;7.35;;;;;;;;;;5038221;28;20398;-74
2020/12/02 19:50:33;;;;;;;26.65;7.47;;;;;;;;;;5040274;28;20032;-75
2020/12/02 19:53:20;;;;;;;29.25;7.80;;;;;;;;;;5040831;28;20021;-74
2020/12/02 19:55:54;;;;;;;32.25;8.63;;;;;;;;;;5041653;28;20043;-75
2020/12/02 19:58:19;;;;;;;34.42;7.72;;;;;;;;;;5025929;28;20025;-75
2020/12/02 20:00:48;;;;;;;31.88;8.10;;;;;;;;;;5025999;28;20115;-75
2020/12/02 20:03:16;;;;;;;36.03;8.93;;;;;;;;;;5034268;28;20025;-74
2020/12/02 20:05:42;;;;;;;27.55;7.95;;;;;;;;;;5032895;28;20492;-74
2020/12/02 20:08:07;;;;;;;37.50;9.43;;;;;;;;;;5041708;28;20037;-74
2020/12/02 20:10:46;;;;;;;33.10;8.90;;;;;;;;;;5036162;28;20476;-75
2020/12/02 20:13:32;;;;;;;31.85;8.95;;;;;;;;;;5033129;28;20075;-75
2020/12/02 20:16:01;;;;;;;50.95;10.48;;;;;;;;;;5029165;28;20044;-74
2020/12/02 20:18:45;;;;;;;29.50;9.07;;;;;;;;;;5028696;28;20033;-74
2020/12/02 20:21:15;;;;;;;40.83;9.25;;;;;;;;;;5029719;28;20109;-78
2020/12/02 20:23:46;;;;;;;28.95;9.05;;;;;;;;;;5035455;28;20140;-74
2020/12/02 20:26:24;;;;;;;34.35;9.73;;;;;;;;;;5038692;28;20039;-77
2020/12/02 20:29:08;;;;;;;25.75;9.50;;;;;;;;;;5039244;28;20064;-74
2020/12/02 20:31:35;;;;;;;31.05;9.13;;;;;;;;;;5034022;28;20057;-74
2020/12/02 20:34:02;;;;;;;38.53;9.45;;;;;;;;;;5043706;28;20092;-75
2020/12/02 20:36:28;;;;;;;40.78;10.57;;;;;;;;;;5035718;28;20495;-75
2020/12/02 20:38:57;;;;;;;39.17;9.73;;;;;;;;;;5037116;28;20029;-75
2020/12/02 20:41:23;;;;;;;50.70;13.52;;;;;;;;;;5041749;28;20033;-77
2020/12/02 20:43:51;;;;;;;41.13;13.45;;;;;;;;;;5039877;28;20045;-74
2020/12/02 20:46:31;;;;;;;67.20;21.58;;;;;;;;;;5049762;28;20033;-74
2020/12/02 20:48:57;;;;;;;47.20;12.80;;;;;;;;;;5049944;28;20021;-74
2020/12/02 20:51:41;;;;;;;38.42;11.73;;;;;;;;;;5027783;28;20477;-75
2020/12/02 20:54:07;;;;;;;34.63;9.98;;;;;;;;;;5032552;28;20057;-77
2020/12/02 20:56:38;;;;;;;34.17;11.18;;;;;;;;;;5024940;28;20076;-75
2020/12/02 20:59:12;;;;;;;33.13;10.68;;;;;;;;;;5042609;28;20458;-75
2020/12/02 21:01:39;;;;;;;37.42;10.88;;;;;;;;;;5028635;28;20056;-74
2020/12/02 21:04:04;;;;;;;36.42;10.32;;;;;;;;;;5024952;28;20065;-75
2020/12/02 21:06:30;;;;;;;38.30;10.90;;;;;;;;;;5037661;28;20045;-75
2020/12/02 21:08:55;;;;;;;32.97;12.10;;;;;;;;;;5026608;28;20068;-74
2020/12/02 21:11:21;;;;;;;48.33;13.68;;;;;;;;;;5047134;28;20049;-78
2020/12/02 21:13:46;;;;;;;40.97;11.77;;;;;;;;;;5038936;28;20067;-76
2020/12/02 21:16:11;;;;;;;33.33;11.55;;;;;;;;;;5038237;28;20635;-76
2020/12/02 21:18:51;;;;;;;46.28;12.57;;;;;;;;;;5047256;28;20091;-75
2020/12/02 21:21:23;;;;;;;39.63;11.45;;;;;;;;;;5026271;28;20037;-74
2020/12/02 21:23:48;;;;;;;52.28;13.65;;;;;;;;;;5040993;28;20060;-76
2020/12/02 21:26:39;;;;;;;48.13;12.93;;;;;;;;;;5041369;28;20469;-74
2020/12/02 21:29:24;;;;;;;44.60;12.45;;;;;;;;;;5032986;28;20057;-75
2020/12/02 21:32:05;;;;;;;44.55;11.20;;;;;;;;;;5040330;28;20160;-74
2020/12/02 21:34:30;;;;;;;37.08;11.50;;;;;;;;;;5044016;28;20025;-75
2020/12/02 21:37:04;;;;;;;34.42;10.95;;;;;;;;;;5029210;28;20037;-75
2020/12/02 21:39:48;;;;;;;37.63;12.93;;;;;;;;;;5043074;28;20022;-75
2020/12/02 21:42:34;;;;;;;46.70;12.90;;;;;;;;;;5041268;28;20459;-76
2020/12/02 21:44:59;;;;;;;38.08;11.85;;;;;;;;;;5031782;28;20077;-74
2020/12/02 21:47:24;;;;;;;40.30;12.43;;;;;;;;;;5040370;28;20095;-74
2020/12/02 21:50:07;;;;;;;56.88;17.52;;;;;;;;;;5040189;28;20033;-74
2020/12/02 21:52:45;;;;;;;69.25;21.73;;;;;;;;;;5039942;28;20076;-74
2020/12/02 21:55:19;;;;;;;72.70;23.30;;;;;;;;;;5040636;28;20516;-75
2020/12/02 21:57:45;;;;;;;78.63;23.80;;;;;;;;;;5029673;28;20029;-76
2020/12/02 22:00:25;;;;;;;119.88;35.80;;;;;;;;;;5038519;28;20033;-75
2020/12/02 22:03:09;;;;;;;146.02;48.63;;;;;;;;;;5038594;28;20050;-74
2020/12/02 22:05:35;;;;;;;116.88;41.28;;;;;;;;;;5037288;28;20061;-74
2020/12/02 22:08:03;;;;;;;82.85;24.98;;;;;;;;;;5037869;28;20056;-74
2020/12/02 22:10:38;;;;;;;89.78;30.58;;;;;;;;;;5039782;28;20037;-74
2020/12/02 22:13:23;;;;;;;85.75;29.10;;;;;;;;;;5039599;28;20046;-76
2020/12/02 22:15:49;;;;;;;66.40;23.38;;;;;;;;;;5034949;28;20056;-74
2020/12/02 22:18:32;;;;;;;70.20;20.20;;;;;;;;;;5035715;28;20047;-74
2020/12/02 22:21:04;;;;;;;56.33;17.75;;;;;;;;;;5044664;28;20068;-74
2020/12/02 22:23:35;;;;;;;45.92;15.13;;;;;;;;;;5030699;28;20127;-74
2020/12/02 22:26:01;;;;;;;57.13;13.98;;;;;;;;;;5031802;28;20115;-74
2020/12/02 22:28:33;;;;;;;48.95;16.25;;;;;;;;;;5032019;28;20097;-74
2020/12/02 22:31:02;;;;;;;64.55;20.27;;;;;;;;;;5031488;28;20060;-74
2020/12/02 22:33:31;;;;;;;44.83;16.92;;;;;;;;;;5042752;28;20159;-74
2020/12/02 22:35:56;;;;;;;40.35;14.50;;;;;;;;;;5038621;28;20044;-74
2020/12/02 22:38:21;;;;;;;49.75;17.00;;;;;;;;;;5041800;28;20094;-75
2020/12/02 22:41:05;;;;;;;36.35;12.15;;;;;;;;;;5038836;28;20037;-76
2020/12/02 22:43:49;;;;;;;43.33;12.35;;;;;;;;;;5047057;28;20029;-74
2020/12/02 22:46:26;;;;;;;43.45;11.90;;;;;;;;;;5046337;28;20039;-76
2020/12/02 22:48:55;;;;;;;47.60;12.30;;;;;;;;;;5042415;28;20994;-76
2020/12/02 22:51:20;;;;;;;41.47;11.52;;;;;;;;;;5038926;28;20041;-74
2020/12/02 22:53:50;;;;;;;53.63;13.10;;;;;;;;;;5045192;28;20369;-74